SEKCJA WYDRUKÓW, pokaż »

METAR EPBY 212130Z 07009KT CAVOK 19/14 Q1011=

METAR EPGD 212130Z 06008KT CAVOK 16/13 Q1014 =

METAR EPKK 212130Z 06006KT CAVOK 18/13 Q1009 =

METAR EPKT 212130Z 08007KT CAVOK 16/12 Q1009 =

METAR EPLB 212130Z 08003KT CAVOK 16/14 Q1012 =

METAR EPLL 212130Z 07008KT CAVOK 19/11 Q1011 =

METAR EPML 212130Z NIL=

METAR EPMO 212130Z 07008KT CAVOK 18/12 Q1013 =

METAR EPPO 212130Z 06008KT CAVOK 19/12 Q1010 =

METAR EPRA 212130Z 08007KT CAVOK 17/12 Q1012=

METAR EPRZ 212130Z 08004KT CAVOK 18/14 Q1010 =

METAR EPSC 212130Z 06008KT CAVOK 20/14 Q1011 =

METAR EPSY 212130Z VRB03KT CAVOK 17/12 Q1014=

METAR EPWA 212130Z 09011KT CAVOK 21/12 Q1012 NOSIG=

METAR EPWR 212130Z 06006KT CAVOK 22/14 Q1008 =

METAR EPZG 212130Z NIL=
 METAR EPWR
Lokalizacja:EPWR Wrocław Strachowice
Czas:21:30 UTC
Średni kierunek wiatru:60 °
Średnia prędkość wiatru:6 węzłów
CAVOK:Widzialność 10 km i więcej, zjawisko: NIL, zachmurzenie: NSC
Temperatura powietrza:22 °C
Temperatura punktu rosy:14 °C
Ciśnienie QNH:1008 hPa